Time;durP1;ratioP1;P1;durP2;ratioP2;P2;SDS_P1;SDS_P2;PMS_P1;PMS_P2;Temp;Humidity;BMP_temperature;BMP_pressure;BME280_temperature;BME280_humidity;BME280_pressure;Samples;Min_cycle;Max_cycle;Signal;HPM_P1;HPM_P2
2022/07/19 00:01:58;;;;;;;9.65;6.18;;;22.70;95.30;;;;;;9184803;19;20754;-73
2022/07/19 00:05:05;;;;;;;12.20;5.65;;;22.70;95.20;;;;;;9182495;19;20023;-73
2022/07/19 00:08:10;;;;;;;8.48;5.82;;;22.70;95.20;;;;;;9186385;19;20466;-73
2022/07/19 00:11:14;;;;;;;8.27;5.45;;;22.60;95.40;;;;;;9183222;19;20017;-73
2022/07/19 00:14:19;;;;;;;11.55;5.70;;;22.70;96.10;;;;;;9183266;19;20388;-73
2022/07/19 00:17:22;;;;;;;8.52;5.45;;;22.40;96.00;;;;;;9183189;19;20022;-73
2022/07/19 00:20:29;;;;;;;9.40;6.03;;;22.50;96.20;;;;;;9182134;19;20022;-73
2022/07/19 00:23:33;;;;;;;9.65;5.43;;;22.50;96.50;;;;;;9183697;19;20107;-73
2022/07/19 00:26:37;;;;;;;9.05;4.95;;;22.40;96.50;;;;;;9180718;19;20033;-73
2022/07/19 00:29:41;;;;;;;9.13;5.35;;;22.20;96.70;;;;;;9179333;19;20082;-73
2022/07/19 00:32:45;;;;;;;10.05;5.70;;;22.30;96.90;;;;;;9184851;19;20447;-73
2022/07/19 00:35:51;;;;;;;8.82;5.90;;;22.30;96.90;;;;;;9181450;19;20011;-74
2022/07/19 00:38:55;;;;;;;9.55;5.80;;;22.20;97.00;;;;;;9181601;19;20011;-73
2022/07/19 00:41:59;;;;;;;10.63;6.20;;;22.10;97.30;;;;;;9182176;19;20019;-73
2022/07/19 00:45:03;;;;;;;8.85;5.55;;;21.90;97.40;;;;;;9180931;19;20043;-73
2022/07/19 00:48:08;;;;;;;12.35;6.00;;;22.10;97.60;;;;;;9178937;19;20028;-73
2022/07/19 00:51:16;;;;;;;8.40;6.00;;;22.00;97.70;;;;;;9181545;19;20082;-73
2022/07/19 00:54:21;;;;;;;10.90;6.05;;;21.90;97.90;;;;;;9184736;19;20011;-73
2022/07/19 00:57:26;;;;;;;9.48;5.53;;;22.00;97.90;;;;;;9185257;19;20014;-74
2022/07/19 01:00:33;;;;;;;8.95;6.00;;;21.90;98.10;;;;;;9180870;19;20025;-73
2022/07/19 01:03:39;;;;;;;10.85;6.30;;;21.80;98.40;;;;;;9178729;19;20539;-73
2022/07/19 01:06:46;;;;;;;10.65;6.40;;;21.70;98.50;;;;;;9179428;19;20021;-74
2022/07/19 01:09:52;;;;;;;11.23;6.25;;;21.60;98.50;;;;;;9176664;19;20078;-73
2022/07/19 01:12:56;;;;;;;10.57;6.10;;;21.50;98.90;;;;;;9182889;19;20066;-73
2022/07/19 01:16:05;;;;;;;9.90;6.00;;;21.60;98.70;;;;;;9183622;19;20014;-73
2022/07/19 01:19:09;;;;;;;10.57;6.00;;;21.60;98.20;;;;;;9181146;19;20052;-73
2022/07/19 01:22:15;;;;;;;10.38;6.00;;;21.50;98.70;;;;;;9182443;19;20015;-73
2022/07/19 01:25:20;;;;;;;10.15;6.57;;;21.50;98.80;;;;;;9181742;19;20099;-73
2022/07/19 01:28:24;;;;;;;10.05;6.20;;;21.40;98.70;;;;;;9181755;19;20025;-72
2022/07/19 01:31:28;;;;;;;10.32;6.95;;;21.50;98.80;;;;;;9182730;19;20018;-73
2022/07/19 01:34:32;;;;;;;12.70;6.47;;;21.40;99.10;;;;;;9180407;19;20487;-73
2022/07/19 01:37:38;;;;;;;13.63;6.68;;;21.50;99.10;;;;;;9180390;19;20014;-73
2022/07/19 01:40:42;;;;;;;;;;;21.30;99.30;;;;;;9183317;19;20074;-73
2022/07/19 01:43:46;;;;;;;8.52;6.40;;;21.10;99.60;;;;;;9177789;19;19974;-73
2022/07/19 01:46:56;;;;;;;11.93;6.88;;;21.10;99.40;;;;;;9178859;19;20037;-73
2022/07/19 01:50:00;;;;;;;11.95;7.03;;;21.00;99.60;;;;;;9177759;19;20045;-73
2022/07/19 01:53:06;;;;;;;9.35;6.07;;;21.20;99.80;;;;;;9180719;19;20025;-73
2022/07/19 01:56:10;;;;;;;8.82;6.30;;;21.10;99.90;;;;;;9183346;19;20014;-74
2022/07/19 01:59:14;;;;;;;10.90;6.80;;;21.20;99.80;;;;;;9186058;19;20419;-75
2022/07/19 02:02:18;;;;;;;10.20;6.85;;;21.00;99.80;;;;;;9192857;19;20052;-73
2022/07/19 02:05:22;;;;;;;12.07;7.15;;;20.90;99.70;;;;;;9189437;19;20020;-74
2022/07/19 02:08:29;;;;;;;12.35;7.15;;;20.90;99.70;;;;;;9182310;19;20022;-73
2022/07/19 02:11:39;;;;;;;13.15;7.35;;;20.90;99.60;;;;;;9179910;19;20501;-73
2022/07/19 02:14:46;;;;;;;11.20;7.07;;;20.90;99.40;;;;;;9177702;19;20018;-74
2022/07/19 02:17:50;;;;;;;11.73;7.18;;;20.70;99.60;;;;;;9183571;19;20022;-74
2022/07/19 02:20:53;;;;;;;11.13;7.20;;;20.70;99.80;;;;;;9192520;19;20027;-74
2022/07/19 02:24:00;;;;;;;15.40;7.43;;;20.70;99.80;;;;;;9191201;19;20521;-74
2022/07/19 02:27:04;;;;;;;10.07;6.68;;;20.60;99.90;;;;;;9189635;19;20014;-74
2022/07/19 02:30:09;;;;;;;11.00;6.68;;;20.60;99.90;;;;;;9185312;19;20018;-74
2022/07/19 02:33:13;;;;;;;10.63;6.93;;;20.50;99.90;;;;;;9186755;19;20018;-74
2022/07/19 02:36:17;;;;;;;11.00;7.30;;;20.70;99.90;;;;;;9188115;19;20128;-73
2022/07/19 02:39:24;;;;;;;9.60;6.38;;;20.50;99.90;;;;;;9186822;19;20021;-75
2022/07/19 02:42:27;;;;;;;17.48;8.32;;;20.40;99.90;;;;;;9191644;19;20015;-74
2022/07/19 02:45:34;;;;;;;12.65;7.57;;;20.60;99.90;;;;;;9187437;19;20074;-74
2022/07/19 02:48:37;;;;;;;11.43;7.43;;;20.30;99.90;;;;;;9185203;19;20022;-74
2022/07/19 02:51:41;;;;;;;11.50;7.78;;;20.30;99.90;;;;;;9189068;19;20019;-74
2022/07/19 02:54:48;;;;;;;9.45;6.65;;;20.20;99.90;;;;;;9189455;19;20106;-74
2022/07/19 02:57:52;;;;;;;11.00;7.20;;;20.20;99.90;;;;;;9187727;19;20015;-74
2022/07/19 03:00:56;;;;;;;13.00;7.28;;;20.20;99.90;;;;;;9184593;19;20023;-74
2022/07/19 03:04:00;;;;;;;12.55;7.60;;;20.10;99.90;;;;;;9184885;19;20035;-73
2022/07/19 03:07:03;;;;;;;12.20;7.50;;;20.30;99.90;;;;;;9184868;19;20066;-73
2022/07/19 03:10:11;;;;;;;12.38;7.80;;;20.20;99.90;;;;;;9183168;19;20014;-74
2022/07/19 03:13:16;;;;;;;13.70;7.40;;;20.10;99.90;;;;;;9186074;19;20073;-74
2022/07/19 03:16:22;;;;;;;15.20;8.00;;;20.20;99.90;;;;;;9186775;19;20416;-74
2022/07/19 03:19:26;;;;;;;13.05;7.65;;;20.00;99.90;;;;;;9185762;19;20019;-74
2022/07/19 03:22:30;;;;;;;12.82;7.55;;;20.20;99.90;;;;;;9181906;19;20555;-74
2022/07/19 03:25:36;;;;;;;12.32;7.65;;;20.00;99.90;;;;;;9184311;19;20048;-74
2022/07/19 03:28:40;;;;;;;11.82;7.65;;;20.10;99.90;;;;;;9184307;19;20011;-74
2022/07/19 03:31:45;;;;;;;15.18;7.53;;;20.10;99.90;;;;;;9186834;19;20100;-73
2022/07/19 03:34:48;;;;;;;10.43;7.53;;;20.00;99.90;;;;;;9182327;19;20391;-74
2022/07/19 03:37:52;;;;;;;11.40;7.50;;;19.90;99.90;;;;;;9183777;19;20027;-74
2022/07/19 03:40:59;;;;;;;9.63;7.10;;;20.00;99.90;;;;;;9185350;19;20030;-74
2022/07/19 03:44:03;;;;;;;11.93;7.53;;;19.90;99.90;;;;;;9183726;19;20090;-73
2022/07/19 03:47:07;;;;;;;11.80;7.90;;;19.80;99.90;;;;;;9183073;19;20010;-74
2022/07/19 03:50:11;;;;;;;12.90;7.65;;;19.70;99.90;;;;;;9181455;19;20011;-74
2022/07/19 03:53:15;;;;;;;9.85;7.00;;;19.60;99.90;;;;;;9186026;19;20087;-74
2022/07/19 03:56:22;;;;;;;12.20;7.85;;;19.80;99.90;;;;;;9185453;19;20371;-74
2022/07/19 03:59:26;;;;;;;11.82;7.45;;;19.70;99.90;;;;;;9178206;19;20014;-74
2022/07/19 04:02:30;;;;;;;10.70;7.22;;;19.70;99.90;;;;;;9184322;19;20017;-74
2022/07/19 04:05:34;;;;;;;13.77;7.93;;;19.70;99.90;;;;;;9184329;19;20021;-74
2022/07/19 04:08:38;;;;;;;11.60;7.25;;;19.60;99.90;;;;;;9184268;19;20123;-74
2022/07/19 04:11:45;;;;;;;11.45;7.13;;;19.60;99.90;;;;;;9182648;19;20074;-73
2022/07/19 04:14:49;;;;;;;11.80;7.07;;;19.50;99.90;;;;;;9182279;19;20357;-74
2022/07/19 04:17:53;;;;;;;12.43;7.55;;;19.50;99.90;;;;;;9181762;19;20018;-73
2022/07/19 04:20:57;;;;;;;17.02;7.88;;;19.60;99.90;;;;;;9183260;19;20022;-74
2022/07/19 04:24:03;;;;;;;12.77;7.60;;;19.50;99.90;;;;;;9187893;19;20018;-74
2022/07/19 04:27:10;;;;;;;12.50;7.90;;;19.50;99.90;;;;;;9183241;19;20022;-74
2022/07/19 04:30:14;;;;;;;11.45;7.72;;;19.40;99.90;;;;;;9185223;19;20102;-74
2022/07/19 04:33:18;;;;;;;11.00;7.57;;;19.40;99.90;;;;;;9184189;19;20015;-74
2022/07/19 04:36:22;;;;;;;13.73;7.15;;;17.30;99.90;;;;;;9184891;19;20019;-73
2022/07/19 04:39:26;;;;;;;12.38;7.78;;;19.50;99.90;;;;;;9183311;19;20018;-74
2022/07/19 04:42:33;;;;;;;14.05;8.38;;;19.60;99.90;;;;;;9182461;19;20044;-74
2022/07/19 04:45:37;;;;;;;12.52;7.75;;;19.40;99.90;;;;;;9185282;19;20078;-74
2022/07/19 04:48:41;;;;;;;13.25;7.70;;;19.60;99.90;;;;;;9180138;19;20409;-74
2022/07/19 04:51:45;;;;;;;14.20;8.40;;;19.50;99.90;;;;;;9182047;19;20022;-74
2022/07/19 04:54:49;;;;;;;12.10;8.30;;;19.60;99.90;;;;;;9179856;19;20044;-74
2022/07/19 04:57:55;;;;;;;14.07;8.43;;;19.50;99.90;;;;;;8946415;19;20078;-74
2022/07/19 05:00:59;;;;;;;12.82;8.02;;;19.60;99.90;;;;;;9177129;19;20019;-74
2022/07/19 05:04:03;;;;;;;14.88;8.80;;;19.30;99.90;;;;;;9183145;19;20021;-73
2022/07/19 05:07:07;;;;;;;12.48;7.93;;;19.50;99.90;;;;;;9178036;19;20014;-73
2022/07/19 05:10:12;;;;;;;19.00;10.30;;;19.50;99.90;;;;;;9182667;19;20018;-73
2022/07/19 05:13:18;;;;;;;14.63;8.75;;;19.40;99.90;;;;;;9178370;19;20428;-75
2022/07/19 05:16:23;;;;;;;13.27;8.32;;;19.50;99.90;;;;;;9185557;19;20475;-74
2022/07/19 05:19:26;;;;;;;11.10;7.60;;;19.60;99.90;;;;;;9207487;19;20011;-74
2022/07/19 05:22:31;;;;;;;14.70;8.20;;;19.50;99.90;;;;;;9187382;19;20010;-74
2022/07/19 05:25:34;;;;;;;12.77;8.63;;;19.50;99.90;;;;;;9207205;19;20040;-74
2022/07/19 05:28:41;;;;;;;17.38;9.02;;;19.50;99.90;;;;;;9201536;19;20019;-74
2022/07/19 05:31:45;;;;;;;13.90;7.68;;;19.50;99.90;;;;;;9197794;19;20483;-74
2022/07/19 05:34:49;;;;;;;14.13;8.18;;;19.70;99.90;;;;;;9176264;19;20014;-75
2022/07/19 05:37:53;;;;;;;14.82;8.82;;;19.60;99.90;;;;;;9181911;19;20026;-75
2022/07/19 05:40:56;;;;;;;13.27;8.20;;;19.60;99.90;;;;;;9177051;19;20017;-75
2022/07/19 05:44:03;;;;;;;13.10;7.72;;;19.70;99.90;;;;;;9176884;19;20028;-75
2022/07/19 05:47:07;;;;;;;13.73;8.60;;;19.70;99.90;;;;;;9077308;19;20049;-75
2022/07/19 05:50:11;;;;;;;11.75;7.70;;;19.80;99.90;;;;;;9165403;19;20018;-74
2022/07/19 05:53:17;;;;;;;13.88;8.65;;;19.90;99.90;;;;;;9176693;19;20015;-68
2022/07/19 05:56:21;;;;;;;15.65;8.27;;;19.00;99.90;;;;;;9176380;19;20026;-67
2022/07/19 05:59:27;;;;;;;16.48;8.52;;;20.10;99.90;;;;;;9181087;19;20368;-67
2022/07/19 06:02:31;;;;;;;12.68;8.20;;;20.10;99.90;;;;;;9181420;19;20025;-67
2022/07/19 06:05:35;;;;;;;17.05;8.27;;;20.00;99.90;;;;;;9179975;19;20398;-67
2022/07/19 06:08:39;;;;;;;15.98;8.68;;;20.00;99.90;;;;;;9178447;19;20040;-68
2022/07/19 06:11:43;;;;;;;15.93;8.15;;;20.00;99.90;;;;;;9175199;19;20018;-67
2022/07/19 06:14:50;;;;;;;15.25;8.50;;;20.10;99.90;;;;;;9180305;19;20344;-68
2022/07/19 06:17:55;;;;;;;13.77;8.27;;;20.10;99.90;;;;;;9178247;19;20082;-67
2022/07/19 06:20:59;;;;;;;17.77;9.30;;;20.20;99.90;;;;;;9177577;19;20018;-67
2022/07/19 06:24:03;;;;;;;12.55;8.00;;;20.20;99.90;;;;;;9177621;19;20022;-67
2022/07/19 06:27:07;;;;;;;16.52;8.60;;;20.30;99.90;;;;;;9176945;19;20050;-67
2022/07/19 06:30:14;;;;;;;11.93;7.93;;;20.40;99.90;;;;;;9178957;19;20018;-67
2022/07/19 06:33:18;;;;;;;14.70;8.40;;;20.40;99.90;;;;;;9178438;19;20010;-67
2022/07/19 06:36:22;;;;;;;12.73;7.88;;;20.60;99.90;;;;;;9175516;19;20021;-67
2022/07/19 06:39:26;;;;;;;13.60;8.05;;;20.50;99.90;;;;;;9181873;19;20006;-67
2022/07/19 06:42:31;;;;;;;17.17;9.35;;;20.70;99.90;;;;;;9175974;19;20074;-67
2022/07/19 06:45:37;;;;;;;13.75;8.27;;;20.60;99.90;;;;;;9175935;19;20404;-67
2022/07/19 06:48:42;;;;;;;13.63;8.55;;;20.60;99.90;;;;;;9177640;19;20372;-67
2022/07/19 06:51:45;;;;;;;13.85;8.07;;;20.80;99.90;;;;;;9177103;19;20029;-67
2022/07/19 06:54:49;;;;;;;14.25;7.35;;;20.80;99.90;;;;;;9180253;19;20479;-67
2022/07/19 06:57:54;;;;;;;18.63;7.47;;;20.90;99.90;;;;;;9173659;19;20015;-67
2022/07/19 07:01:01;;;;;;;14.48;7.65;;;21.20;99.90;;;;;;9172752;19;20502;-67
2022/07/19 07:04:05;;;;;;;11.38;7.13;;;20.30;99.90;;;;;;9183394;19;20033;-67
2022/07/19 07:07:08;;;;;;;14.95;7.00;;;21.20;99.90;;;;;;9186085;19;20040;-67
2022/07/19 07:10:13;;;;;;;15.20;7.43;;;21.10;99.90;;;;;;9185202;19;20488;-68
2022/07/19 07:13:17;;;;;;;10.80;6.72;;;21.20;99.90;;;;;;9185113;19;20503;-68
2022/07/19 07:16:24;;;;;;;9.20;6.50;;;21.30;99.90;;;;;;9185282;19;20356;-67
2022/07/19 07:19:28;;;;;;;10.95;7.05;;;21.40;99.90;;;;;;9185404;19;20010;-67
2022/07/19 07:22:33;;;;;;;9.82;6.18;;;21.40;99.90;;;;;;9184882;19;20360;-67
2022/07/19 07:25:38;;;;;;;10.85;6.20;;;21.60;99.90;;;;;;9182840;19;20029;-68
2022/07/19 07:28:42;;;;;;;10.50;5.75;;;21.70;99.90;;;;;;9185805;19;20015;-67
2022/07/19 07:31:48;;;;;;;11.00;6.20;;;21.70;99.90;;;;;;9184777;19;20114;-67
2022/07/19 07:34:52;;;;;;;12.95;6.43;;;21.70;99.90;;;;;;9183325;19;20078;-67
2022/07/19 07:37:56;;;;;;;10.40;5.60;;;21.70;99.90;;;;;;9183284;19;20021;-68
2022/07/19 07:41:00;;;;;;;13.27;5.70;;;22.00;99.90;;;;;;9183570;19;20479;-67
2022/07/19 07:44:04;;;;;;;13.70;5.10;;;22.00;99.90;;;;;;9183793;19;20016;-67
2022/07/19 07:47:11;;;;;;;8.57;5.18;;;22.00;99.90;;;;;;9178103;19;20018;-68
2022/07/19 07:50:15;;;;;;;9.52;4.53;;;22.20;99.90;;;;;;9181887;19;20037;-67
2022/07/19 07:53:19;;;;;;;8.15;4.15;;;22.20;99.90;;;;;;9183995;19;20018;-68
2022/07/19 07:56:24;;;;;;;6.38;4.05;;;22.30;99.90;;;;;;9178372;19;20014;-67
2022/07/19 07:59:28;;;;;;;6.53;3.92;;;22.50;99.90;;;;;;9186649;19;20011;-67
2022/07/19 08:02:40;;;;;;;7.15;4.00;;;22.50;99.90;;;;;;9180219;19;20019;-67
2022/07/19 08:05:47;;;;;;;6.00;4.20;;;22.50;99.90;;;;;;9186327;19;20014;-67
2022/07/19 08:08:50;;;;;;;7.68;4.07;;;22.50;99.20;;;;;;9184043;19;20023;-68
2022/07/19 08:11:55;;;;;;;7.60;4.15;;;22.60;98.60;;;;;;9174933;19;20018;-68
2022/07/19 08:14:58;;;;;;;5.57;3.90;;;22.80;98.20;;;;;;9175549;19;20011;-67
2022/07/19 08:18:06;;;;;;;5.30;3.65;;;22.70;98.30;;;;;;9182787;19;20022;-67
2022/07/19 08:21:10;;;;;;;5.93;3.80;;;23.00;97.80;;;;;;9182879;19;20038;-68
2022/07/19 08:24:14;;;;;;;8.20;3.65;;;22.90;97.50;;;;;;9178288;19;20104;-68
2022/07/19 08:27:18;;;;;;;6.78;3.63;;;23.00;97.30;;;;;;8986960;19;20117;-67
2022/07/19 08:30:22;;;;;;;10.73;4.03;;;23.10;97.80;;;;;;9180233;19;20022;-71
2022/07/19 08:33:29;;;;;;;7.47;3.53;;;23.20;97.40;;;;;;9189277;19;20029;-77
2022/07/19 08:36:33;;;;;;;;;;;23.30;97.30;;;;;;9186563;19;20500;-76
2022/07/19 08:39:37;;;;;;;6.18;3.58;;;23.40;96.50;;;;;;9181958;19;19915;-68
2022/07/19 08:42:42;;;;;;;5.45;3.50;;;23.50;96.90;;;;;;9183948;19;20025;-69
2022/07/19 08:45:46;;;;;;;6.35;3.38;;;23.70;96.60;;;;;;9163739;19;20027;-70
2022/07/19 08:48:54;;;;;;;8.05;3.60;;;23.60;96.60;;;;;;9163475;19;20053;-70
2022/07/19 08:58:20;;;;;;;7.20;4.03;;;23.90;96.10;;;;;;9038393;19;21051;-77
2022/07/19 09:01:25;;;;;;;7.77;3.73;;;23.90;96.60;;;;;;9171287;19;20431;-82
2022/07/19 09:04:32;;;;;;;7.85;3.83;;;24.00;95.90;;;;;;9192270;19;20526;-86
2022/07/19 09:07:40;;;;;;;6.22;3.67;;;24.10;97.00;;;;;;9177777;19;20022;-83
2022/07/19 09:12:29;;;;;;;5.78;3.40;;;24.00;95.90;;;;;;9086378;19;20474;-66
2022/07/19 09:17:34;;;;;;;6.07;3.60;;;24.40;96.20;;;;;;9218742;19;20451;-66
2022/07/19 09:20:39;;;;;;;8.45;3.50;;;24.60;94.90;;;;;;9222878;19;20022;-67
2022/07/19 09:23:44;;;;;;;3.92;3.00;;;24.70;94.60;;;;;;9223783;19;20052;-66
2022/07/19 09:26:57;;;;;;;5.50;3.17;;;25.10;95.10;;;;;;9224407;19;20508;-66
2022/07/19 09:30:02;;;;;;;4.57;3.30;;;24.90;94.70;;;;;;9222163;19;20427;-66
2022/07/19 09:33:17;;;;;;;5.93;2.83;;;24.80;93.90;;;;;;9222487;19;20014;-67
2022/07/19 09:36:21;;;;;;;5.55;3.22;;;24.90;91.60;;;;;;9220852;19;20019;-66
2022/07/19 09:39:30;;;;;;;4.57;2.97;;;25.30;92.40;;;;;;9225025;19;20014;-67
2022/07/19 09:42:38;;;;;;;5.45;3.00;;;25.30;91.80;;;;;;9218788;19;20022;-65
2022/07/19 09:45:42;;;;;;;10.52;3.22;;;25.70;92.20;;;;;;9223003;19;20018;-66
2022/07/19 09:48:49;;;;;;;7.25;3.15;;;25.50;90.50;;;;;;9222367;19;20055;-66
2022/07/19 09:51:55;;;;;;;7.57;3.30;;;25.70;90.70;;;;;;9221918;19;20021;-66
2022/07/19 09:55:03;;;;;;;5.38;2.85;;;25.80;91.40;;;;;;9224281;19;20130;-66
2022/07/19 09:58:09;;;;;;;7.75;2.75;;;25.90;90.00;;;;;;9223608;19;20025;-66
2022/07/19 10:01:13;;;;;;;7.55;3.17;;;25.90;88.20;;;;;;9222051;19;20111;-66
2022/07/19 10:04:23;;;;;;;4.65;2.80;;;25.90;87.60;;;;;;9193768;19;20018;-66
2022/07/19 10:07:27;;;;;;;4.13;2.90;;;23.50;87.10;;;;;;9223460;19;20109;-67
2022/07/19 10:10:32;;;;;;;5.25;2.70;;;26.40;88.20;;;;;;9221562;19;20014;-67
2022/07/19 10:13:37;;;;;;;5.25;2.83;;;26.40;85.10;;;;;;9224701;19;20023;-67
2022/07/19 10:17:05;;;;;;;6.00;2.85;;;26.60;84.90;;;;;;9217277;19;20098;-69
2022/07/19 10:20:13;;;;;;;5.53;3.08;;;26.60;83.60;;;;;;9219432;19;20018;-67
2022/07/19 10:23:18;;;;;;;4.90;2.42;;;26.70;84.20;;;;;;9223258;19;20074;-67
2022/07/19 10:26:36;;;;;;;5.55;2.80;;;27.00;81.50;;;;;;9214336;19;20371;-67
2022/07/19 10:29:40;;;;;;;4.85;2.85;;;26.80;81.50;;;;;;9185881;19;20480;-67
2022/07/19 10:32:46;;;;;;;5.68;2.63;;;27.00;80.50;;;;;;9183767;19;20017;-67
2022/07/19 10:35:53;;;;;;;4.78;2.80;;;27.00;78.30;;;;;;9185170;19;20476;-67
2022/07/19 10:39:30;;;;;;;4.40;2.40;;;27.10;79.30;;;;;;9186224;19;20501;-67
2022/07/19 10:42:34;;;;;;;;;;;27.40;76.10;;;;;;9185051;19;20015;-67
2022/07/19 10:45:39;;;;;;;4.45;2.38;;;27.40;77.50;;;;;;9183199;19;20336;-66
2022/07/19 10:48:49;;;;;;;5.47;2.60;;;27.50;77.20;;;;;;9185942;19;20026;-67
2022/07/19 10:51:57;;;;;;;5.45;2.60;;;27.80;75.90;;;;;;9171694;19;20078;-67
2022/07/19 10:55:28;;;;;;;4.88;2.50;;;27.80;73.10;;;;;;9178790;19;20033;-68
2022/07/19 10:58:49;;;;;;;5.78;2.70;;;27.80;70.80;;;;;;9177437;19;20019;-69
2022/07/19 11:02:00;;;;;;;4.95;2.50;;;28.10;70.80;;;;;;9186136;19;20495;-67
2022/07/19 11:05:04;;;;;;;4.43;2.80;;;28.00;70.20;;;;;;9176470;19;20022;-68
2022/07/19 11:08:11;;;;;;;4.13;2.53;;;28.20;72.00;;;;;;9176269;19;20015;-68
2022/07/19 11:11:16;;;;;;;5.82;2.50;;;28.40;70.60;;;;;;9186627;19;20025;-67
2022/07/19 11:14:22;;;;;;;3.97;2.10;;;28.40;69.00;;;;;;9182616;19;20022;-68
2022/07/19 11:17:27;;;;;;;7.82;2.50;;;28.40;69.90;;;;;;9180604;19;20018;-68
2022/07/19 11:20:33;;;;;;;3.65;2.17;;;28.50;68.50;;;;;;9183666;19;20018;-68
2022/07/19 11:23:41;;;;;;;4.50;2.50;;;28.70;66.60;;;;;;9183364;19;20038;-67
2022/07/19 11:26:45;;;;;;;3.83;2.35;;;28.90;66.30;;;;;;9182300;19;20504;-68
2022/07/19 11:29:55;;;;;;;6.20;2.63;;;28.80;65.70;;;;;;9183468;19;20510;-67
2022/07/19 11:33:02;;;;;;;5.00;2.70;;;29.10;67.40;;;;;;9185097;19;20025;-68
2022/07/19 11:36:06;;;;;;;4.53;2.33;;;29.00;66.30;;;;;;9184375;19;20026;-68
2022/07/19 11:39:14;;;;;;;4.22;2.25;;;29.20;64.80;;;;;;9181531;19;20021;-67
2022/07/19 11:42:29;;;;;;;4.15;2.30;;;29.20;64.10;;;;;;9180855;19;20018;-68
2022/07/19 11:45:33;;;;;;;2.95;2.00;;;31.10;64.60;;;;;;9181212;19;20015;-68
2022/07/19 11:48:37;;;;;;;4.00;2.17;;;29.60;63.40;;;;;;9182617;19;20022;-68
2022/07/19 11:51:41;;;;;;;4.03;2.00;;;27.40;59.20;;;;;;9179838;19;20015;-68
2022/07/19 11:55:00;;;;;;;3.67;1.98;;;29.70;62.40;;;;;;9182805;19;20014;-69
2022/07/19 11:58:10;;;;;;;3.95;2.33;;;29.80;59.30;;;;;;9176970;19;20465;-68
2022/07/19 12:01:14;;;;;;;3.53;2.00;;;30.10;60.70;;;;;;9180218;19;20010;-69
2022/07/19 12:04:18;;;;;;;5.97;2.30;;;30.20;62.20;;;;;;9078994;19;20023;-69
2022/07/19 12:07:22;;;;;;;3.97;2.13;;;30.70;62.70;;;;;;9182863;19;20062;-68
2022/07/19 12:10:48;;;;;;;4.43;2.17;;;30.30;59.20;;;;;;8986115;19;1616589;-69
2022/07/19 12:13:54;;;;;;;;;;;30.50;57.10;;;;;;7503507;19;14733635;-70
2022/07/19 12:17:12;;;;;;;4.45;2.25;;;30.70;57.50;;;;;;9178136;19;19911;-70
2022/07/19 12:20:17;;;;;;;5.57;2.30;;;30.80;57.40;;;;;;9182369;19;20022;-69
2022/07/19 12:23:23;;;;;;;3.60;2.05;;;30.80;57.20;;;;;;9182434;19;20378;-70
2022/07/19 12:26:30;;;;;;;4.72;1.95;;;31.20;57.40;;;;;;9181800;19;20015;-70
2022/07/19 12:29:37;;;;;;;6.63;2.47;;;31.10;56.80;;;;;;9181743;19;20087;-69
2022/07/19 12:32:46;;;;;;;3.80;2.40;;;31.30;56.30;;;;;;9180251;19;20013;-70
2022/07/19 12:35:51;;;;;;;3.35;2.03;;;31.30;55.40;;;;;;9169334;19;20015;-69
2022/07/19 12:38:55;;;;;;;4.68;2.00;;;31.40;54.70;;;;;;9180425;19;20066;-69
2022/07/19 12:42:07;;;;;;;5.97;2.22;;;31.60;55.00;;;;;;9178104;19;20481;-68
2022/07/19 12:45:13;;;;;;;4.63;1.90;;;31.60;52.60;;;;;;9179331;19;20473;-69
2022/07/19 12:48:18;;;;;;;;;;;31.70;52.00;;;;;;9180202;19;20019;-70
2022/07/19 12:51:22;;;;;;;13.23;2.50;;;32.00;52.80;;;;;;9179500;19;19922;-68
2022/07/19 12:54:26;;;;;;;4.88;2.80;;;31.90;52.50;;;;;;9179593;19;20473;-70
2022/07/19 12:57:34;;;;;;;3.63;1.80;;;32.10;51.40;;;;;;9176438;19;20555;-70
2022/07/19 13:00:41;;;;;;;4.53;2.30;;;32.20;49.40;;;;;;9180215;19;20018;-68
2022/07/19 13:03:45;;;;;;;3.13;2.08;;;32.30;50.30;;;;;;9178726;19;20018;-68
2022/07/19 13:06:49;;;;;;;4.75;2.03;;;32.40;50.80;;;;;;9176466;19;20018;-69
2022/07/19 13:09:53;;;;;;;5.38;1.95;;;32.50;50.30;;;;;;9178360;19;20028;-69
2022/07/19 13:13:00;;;;;;;5.38;2.03;;;32.60;49.70;;;;;;9177610;19;20059;-69
2022/07/19 13:16:04;;;;;;;3.53;2.10;;;32.70;48.50;;;;;;9176345;19;20014;-69
2022/07/19 13:19:08;;;;;;;2.80;2.00;;;33.00;48.20;;;;;;9180114;19;20014;-69
2022/07/19 13:22:12;;;;;;;4.75;2.08;;;33.10;47.50;;;;;;9180200;19;20022;-69
2022/07/19 13:25:17;;;;;;;4.47;1.80;;;30.50;45.30;;;;;;9179575;19;20669;-69
2022/07/19 13:28:24;;;;;;;3.63;1.77;;;34.30;47.70;;;;;;9170154;19;21425;-70
2022/07/19 13:31:28;;;;;;;3.17;2.00;;;33.60;46.90;;;;;;9173586;19;20010;-69
2022/07/19 13:34:33;;;;;;;3.50;1.77;;;33.60;45.30;;;;;;9177780;19;20021;-67
2022/07/19 13:37:37;;;;;;;3.00;1.60;;;33.70;45.30;;;;;;9175709;19;20023;-67
2022/07/19 13:40:42;;;;;;;3.60;1.83;;;33.70;44.10;;;;;;9176619;19;20390;-69
2022/07/19 13:43:49;;;;;;;3.42;1.88;;;34.00;44.60;;;;;;9176490;19;20018;-69
2022/07/19 13:46:54;;;;;;;4.07;1.85;;;34.30;45.00;;;;;;9175445;19;20025;-70
2022/07/19 13:49:58;;;;;;;9.93;1.88;;;34.10;43.10;;;;;;9173534;19;20018;-70
2022/07/19 13:53:02;;;;;;;3.67;1.70;;;34.40;43.40;;;;;;9173255;19;20018;-69
2022/07/19 13:56:07;;;;;;;2.60;1.70;;;34.30;41.10;;;;;;9083502;19;20473;-69
2022/07/19 13:59:13;;;;;;;3.38;1.75;;;34.50;42.10;;;;;;9176704;19;20473;-72
2022/07/19 14:02:18;;;;;;;5.47;1.80;;;34.60;41.80;;;;;;9180333;19;20014;-71
2022/07/19 14:05:22;;;;;;;7.65;1.90;;;35.00;41.20;;;;;;9184721;19;20006;-70
2022/07/19 14:08:26;;;;;;;2.85;1.90;;;35.00;42.00;;;;;;9181971;19;20015;-71
2022/07/19 14:11:30;;;;;;;4.60;2.17;;;35.10;40.70;;;;;;9186758;19;20030;-72
2022/07/19 14:14:36;;;;;;;5.30;1.95;;;35.10;40.20;;;;;;9183920;19;20015;-72
2022/07/19 14:17:40;;;;;;;3.60;2.00;;;35.50;40.30;;;;;;8779885;19;244046;-69
2022/07/19 14:20:45;;;;;;;4.85;1.80;;;35.50;39.70;;;;;;9180747;19;20055;-69
2022/07/19 14:23:49;;;;;;;3.22;1.90;;;35.20;40.20;;;;;;8914765;19;20031;-69
2022/07/19 14:26:53;;;;;;;2.83;1.70;;;35.90;41.20;;;;;;9187386;19;20022;-69
2022/07/19 14:30:00;;;;;;;5.10;1.80;;;36.10;40.70;;;;;;9189083;19;20044;-68
2022/07/19 14:33:07;;;;;;;3.70;1.80;;;36.20;39.20;;;;;;9185087;19;20025;-69
2022/07/19 14:36:11;;;;;;;6.07;2.22;;;36.10;40.30;;;;;;9182285;19;20018;-69
2022/07/19 14:39:15;;;;;;;3.63;1.80;;;36.20;37.80;;;;;;9187910;19;20018;-70
2022/07/19 14:42:19;;;;;;;4.40;1.88;;;36.20;38.60;;;;;;9184580;19;20018;-70
2022/07/19 14:45:26;;;;;;;5.22;2.08;;;36.40;39.00;;;;;;9186080;19;20019;-70
2022/07/19 14:48:30;;;;;;;5.38;1.75;;;36.40;38.40;;;;;;9185943;19;20050;-70
2022/07/19 14:51:34;;;;;;;4.22;1.88;;;36.50;38.40;;;;;;9181352;19;20010;-67
2022/07/19 14:54:38;;;;;;;5.47;1.88;;;36.70;38.10;;;;;;9185291;19;20407;-67
2022/07/19 14:57:43;;;;;;;4.20;1.90;;;36.90;38.60;;;;;;9183074;19;20010;-69
2022/07/19 15:00:49;;;;;;;2.75;1.80;;;36.70;37.30;;;;;;9184064;19;20037;-68
2022/07/19 15:03:53;;;;;;;5.72;2.00;;;37.20;37.60;;;;;;8886356;19;1006150;-68
2022/07/19 15:06:58;;;;;;;4.47;1.98;;;36.90;38.30;;;;;;9179943;19;20086;-69
2022/07/19 15:10:02;;;;;;;3.03;1.90;;;36.80;37.60;;;;;;9183402;19;20477;-69
2022/07/19 15:13:07;;;;;;;4.88;2.00;;;37.80;37.60;;;;;;9182829;19;20018;-68
2022/07/19 15:16:13;;;;;;;3.27;2.07;;;37.10;37.80;;;;;;9183517;19;20018;-68
2022/07/19 15:19:17;;;;;;;6.93;2.00;;;36.80;37.10;;;;;;9180845;19;20070;-69
2022/07/19 15:22:21;;;;;;;3.95;2.08;;;37.10;36.50;;;;;;9180787;19;20549;-69
2022/07/19 15:25:26;;;;;;;4.93;2.10;;;37.40;36.20;;;;;;9183150;19;20050;-67
2022/07/19 15:28:30;;;;;;;4.80;2.10;;;37.40;36.50;;;;;;9183273;19;20015;-68
2022/07/19 15:31:37;;;;;;;4.63;2.28;;;37.70;36.40;;;;;;9181526;19;20029;-69
2022/07/19 15:34:42;;;;;;;12.57;2.05;;;37.60;36.00;;;;;;9183622;19;20025;-69
2022/07/19 15:37:46;;;;;;;3.80;1.90;;;37.60;35.50;;;;;;9181206;19;20491;-70
2022/07/19 15:40:50;;;;;;;2.58;1.98;;;37.80;36.80;;;;;;9182617;19;20026;-69
2022/07/19 15:43:54;;;;;;;2.83;2.10;;;37.80;37.30;;;;;;9183418;19;20013;-70
2022/07/19 15:47:01;;;;;;;5.93;2.03;;;38.30;38.20;;;;;;9177841;19;20025;-70
2022/07/19 15:50:08;;;;;;;4.70;2.13;;;38.00;37.40;;;;;;9181236;19;20040;-69
2022/07/19 15:53:13;;;;;;;4.63;1.98;;;38.00;36.20;;;;;;9181661;19;20069;-69
2022/07/19 15:56:17;;;;;;;4.68;1.92;;;38.00;38.40;;;;;;9182714;19;20018;-69
2022/07/19 15:59:21;;;;;;;9.10;2.05;;;37.90;38.50;;;;;;9177922;19;20019;-70
2022/07/19 16:02:27;;;;;;;3.22;1.90;;;38.00;38.70;;;;;;9182443;19;20026;-70
2022/07/19 16:05:32;;;;;;;3.67;1.90;;;38.30;39.00;;;;;;9172819;19;20500;-71
2022/07/19 16:08:35;;;;;;;5.07;2.00;;;38.10;39.30;;;;;;9182116;19;20054;-71
2022/07/19 16:11:40;;;;;;;2.93;1.80;;;38.20;39.70;;;;;;9184054;19;20055;-71